Time;durP1;ratioP1;P1;durP2;ratioP2;P2;SDS_P1;SDS_P2;PMS_P1;PMS_P2;Temp;Humidity;BMP_temperature;BMP_pressure;BME280_temperature;BME280_humidity;BME280_pressure;Samples;Min_cycle;Max_cycle;Signal;HPM_P1;HPM_P2
2023/04/07 00:00:51;;;;;;;39.70;29.10;;;7.00;99.90;;;;;;4949350;28;20031;-79
2023/04/07 00:03:16;;;;;;;45.17;30.48;;;7.00;99.90;;;;;;4934701;28;20041;-77
2023/04/07 00:05:42;;;;;;;49.15;31.63;;;7.00;99.90;;;;;;4945040;28;20082;-78
2023/04/07 00:08:08;;;;;;;44.45;30.67;;;7.00;99.90;;;;;;4945568;28;20039;-79
2023/04/07 00:10:34;;;;;;;43.10;30.27;;;7.00;99.90;;;;;;4948561;28;20380;-79
2023/04/07 00:13:00;;;;;;;55.90;32.65;;;7.00;99.90;;;;;;4944200;28;20078;-79
2023/04/07 00:15:25;;;;;;;53.38;32.08;;;7.00;99.90;;;;;;4960417;28;20065;-78
2023/04/07 00:17:51;;;;;;;59.78;33.33;;;7.00;99.90;;;;;;4946703;28;20077;-78
2023/04/07 00:20:17;;;;;;;45.50;31.67;;;7.00;99.90;;;;;;4953001;28;20034;-78
2023/04/07 00:22:43;;;;;;;41.90;29.77;;;7.00;99.90;;;;;;4942796;28;20488;-78
2023/04/07 00:25:09;;;;;;;52.88;33.67;;;7.00;99.90;;;;;;4947386;28;20147;-77
2023/04/07 00:27:35;;;;;;;51.33;32.45;;;7.10;99.90;;;;;;4947421;28;20522;-78
2023/04/07 00:30:01;;;;;;;45.72;31.02;;;7.00;99.90;;;;;;4949036;28;20046;-78
2023/04/07 00:32:27;;;;;;;47.17;32.17;;;7.00;99.90;;;;;;4948443;28;20123;-79
2023/04/07 00:34:52;;;;;;;56.45;33.78;;;7.00;99.90;;;;;;4949203;28;20547;-78
2023/04/07 00:37:18;;;;;;;50.72;32.25;;;7.00;99.90;;;;;;4947344;28;20043;-77
2023/04/07 00:39:45;;;;;;;46.50;31.90;;;7.00;99.90;;;;;;4944523;28;20527;-78
2023/04/07 00:42:10;;;;;;;52.03;33.20;;;7.00;99.90;;;;;;4945694;28;20121;-78
2023/04/07 00:44:36;;;;;;;58.28;33.33;;;7.00;99.90;;;;;;4943417;28;20125;-79
2023/04/07 00:47:02;;;;;;;67.32;34.67;;;7.00;99.90;;;;;;4948636;28;20043;-79
2023/04/07 00:49:28;;;;;;;54.42;33.65;;;7.00;99.90;;;;;;4946729;28;20074;-78
2023/04/07 00:51:57;;;;;;;56.60;34.50;;;7.00;99.90;;;;;;4931764;28;20161;-78
2023/04/07 00:54:23;;;;;;;43.90;32.25;;;7.00;99.90;;;;;;4946160;28;20065;-78
2023/04/07 00:56:50;;;;;;;52.53;33.28;;;7.00;99.90;;;;;;4947938;28;20070;-77
2023/04/07 00:59:16;;;;;;;50.97;33.40;;;7.00;99.90;;;;;;4948923;28;20079;-78
2023/04/07 01:01:52;;;;;;;52.78;33.67;;;7.00;99.90;;;;;;4946093;28;20031;-72
2023/04/07 01:04:21;;;;;;;56.97;34.40;;;7.10;99.90;;;;;;4945610;28;20050;-72
2023/04/07 01:06:49;;;;;;;52.20;33.60;;;7.00;99.90;;;;;;4960906;28;20051;-72
2023/04/07 01:09:52;;;;;;;54.08;34.08;;;7.00;99.90;;;;;;4952985;28;20127;-72
2023/04/07 01:12:49;;;;;;;50.70;32.58;;;7.10;99.90;;;;;;4948547;28;20054;-72
2023/04/07 01:15:20;;;;;;;48.40;31.92;;;7.00;99.90;;;;;;4938117;28;20146;-72
2023/04/07 01:17:51;;;;;;;48.88;32.83;;;7.00;99.90;;;;;;4950023;28;20035;-72
2023/04/07 01:20:21;;;;;;;55.85;34.60;;;7.00;99.90;;;;;;4953133;28;20403;-73
2023/04/07 01:22:54;;;;;;;53.45;33.88;;;7.10;99.90;;;;;;4941084;28;20046;-73
2023/04/07 01:25:33;;;;;;;56.05;33.83;;;7.00;99.90;;;;;;4947802;28;20046;-73
2023/04/07 01:28:40;;;;;;;47.90;33.03;;;7.00;99.90;;;;;;4953066;28;20070;-73
2023/04/07 01:31:08;;;;;;;77.72;35.58;;;7.10;99.90;;;;;;4951311;28;20259;-73
2023/04/07 01:33:35;;;;;;;56.05;34.83;;;7.00;99.90;;;;;;4963635;28;20517;-72
2023/04/07 01:36:02;;;;;;;62.30;34.50;;;7.00;99.90;;;;;;4951536;28;20082;-73
2023/04/07 01:38:28;;;;;;;64.80;34.40;;;7.10;99.90;;;;;;4933257;28;20050;-73
2023/04/07 01:40:56;;;;;;;46.67;32.50;;;7.10;99.90;;;;;;4947344;28;20035;-73
2023/04/07 01:43:24;;;;;;;49.40;33.47;;;7.10;99.90;;;;;;4948854;28;20106;-73
2023/04/07 01:45:51;;;;;;;65.38;34.75;;;7.00;99.90;;;;;;4950696;28;20104;-74
2023/04/07 01:48:17;;;;;;;54.50;33.58;;;7.00;99.90;;;;;;4947460;28;20057;-74
2023/04/07 01:50:43;;;;;;;51.40;33.72;;;7.10;99.90;;;;;;4946518;28;20046;-73
2023/04/07 01:53:10;;;;;;;50.80;32.30;;;7.10;99.90;;;;;;4944364;28;20161;-74
2023/04/07 01:55:37;;;;;;;68.18;34.53;;;7.10;99.90;;;;;;4981239;28;20407;-75
2023/04/07 01:58:06;;;;;;;58.17;33.28;;;7.10;99.90;;;;;;4951082;28;20462;-75
2023/04/07 02:00:33;;;;;;;51.80;32.08;;;7.10;99.90;;;;;;4950505;28;20038;-73
2023/04/07 02:03:06;;;;;;;49.50;31.27;;;7.10;99.90;;;;;;4951868;28;20042;-74
2023/04/07 02:05:35;;;;;;;56.45;32.10;;;7.10;99.90;;;;;;4958103;28;20043;-74
2023/04/07 02:08:04;;;;;;;57.17;32.22;;;7.10;99.90;;;;;;4950983;28;20043;-73
2023/04/07 02:10:33;;;;;;;84.50;34.60;;;7.10;99.90;;;;;;4953532;28;20043;-74
2023/04/07 02:13:00;;;;;;;64.90;34.05;;;7.10;99.90;;;;;;4952880;28;20046;-74
2023/04/07 02:15:27;;;;;;;59.85;31.95;;;7.10;99.90;;;;;;4948280;28;20050;-74
2023/04/07 02:17:55;;;;;;;52.13;30.65;;;7.10;99.90;;;;;;4958623;28;20062;-73
2023/04/07 02:20:22;;;;;;;48.08;30.38;;;7.10;99.90;;;;;;4953943;28;20031;-74
2023/04/07 02:22:48;;;;;;;61.63;32.92;;;7.10;99.90;;;;;;4954666;28;20073;-73
2023/04/07 02:25:26;;;;;;;66.80;33.10;;;7.10;99.90;;;;;;4952069;28;20399;-74
2023/04/07 02:27:53;;;;;;;43.72;29.35;;;7.10;99.90;;;;;;4951250;28;20122;-73
2023/04/07 02:30:20;;;;;;;47.83;30.55;;;7.10;99.90;;;;;;4985571;28;20043;-74
2023/04/07 02:32:45;;;;;;;70.13;33.20;;;7.10;99.90;;;;;;4952359;28;20130;-73
2023/04/07 02:35:11;;;;;;;52.58;31.85;;;7.10;99.90;;;;;;4951740;28;20230;-75
2023/04/07 02:37:40;;;;;;;45.90;30.05;;;7.10;99.90;;;;;;4949298;28;20414;-73
2023/04/07 02:40:06;;;;;;;45.38;30.70;;;7.10;99.90;;;;;;4969944;28;20483;-73
2023/04/07 02:42:32;;;;;;;59.33;32.33;;;7.10;99.90;;;;;;4938516;28;20125;-73
2023/04/07 02:44:58;;;;;;;48.83;30.08;;;7.10;99.90;;;;;;4954006;28;20078;-73
2023/04/07 02:47:24;;;;;;;51.58;30.42;;;7.10;99.90;;;;;;4957480;28;20134;-73
2023/04/07 02:49:50;;;;;;;46.50;28.90;;;7.10;99.90;;;;;;4950327;28;20043;-72
2023/04/07 02:52:16;;;;;;;45.05;29.60;;;7.10;99.90;;;;;;4951072;28;20099;-72
2023/04/07 02:54:42;;;;;;;41.10;27.95;;;7.10;99.90;;;;;;4954164;28;20055;-72
2023/04/07 02:57:08;;;;;;;37.40;26.05;;;7.10;99.90;;;;;;4965320;28;20039;-73
2023/04/07 02:59:34;;;;;;;44.60;28.40;;;7.20;99.90;;;;;;4949106;28;20054;-73
2023/04/07 03:01:59;;;;;;;40.95;26.60;;;7.10;99.90;;;;;;4935763;28;20114;-72
2023/04/07 03:04:26;;;;;;;38.65;25.58;;;7.10;99.90;;;;;;4951895;28;20045;-73
2023/04/07 03:06:52;;;;;;;48.10;27.00;;;7.10;99.90;;;;;;4948128;28;20057;-73
2023/04/07 03:09:17;;;;;;;38.17;26.27;;;7.10;99.90;;;;;;4949141;28;20522;-74
2023/04/07 03:11:43;;;;;;;39.25;26.15;;;7.20;99.90;;;;;;4952087;28;20078;-73
2023/04/07 03:14:09;;;;;;;37.35;25.83;;;7.10;99.90;;;;;;4948750;28;20069;-73
2023/04/07 03:16:34;;;;;;;43.92;26.20;;;7.10;99.90;;;;;;4950923;28;20185;-73
2023/04/07 03:19:00;;;;;;;53.70;28.00;;;7.10;99.90;;;;;;4952094;28;20038;-74
2023/04/07 03:21:27;;;;;;;58.08;29.20;;;7.00;99.90;;;;;;4954095;28;20101;-73
2023/04/07 03:23:53;;;;;;;63.83;29.35;;;7.10;99.90;;;;;;4950716;28;20125;-73
2023/04/07 03:26:20;;;;;;;37.50;26.05;;;7.10;99.90;;;;;;4949586;28;20047;-73
2023/04/07 03:28:46;;;;;;;46.00;26.95;;;7.10;99.90;;;;;;4951872;28;20141;-73
2023/04/07 03:31:11;;;;;;;44.90;25.90;;;7.10;99.90;;;;;;4951142;28;20494;-73
2023/04/07 03:33:37;;;;;;;37.92;25.17;;;7.10;99.90;;;;;;4946733;28;20472;-74
2023/04/07 03:36:03;;;;;;;46.60;26.55;;;7.10;99.90;;;;;;4946745;28;20046;-74
2023/04/07 03:38:29;;;;;;;37.55;23.83;;;7.10;99.90;;;;;;4946833;28;20655;-75
2023/04/07 03:40:55;;;;;;;36.13;24.38;;;7.10;99.90;;;;;;4936701;28;20035;-74
2023/04/07 03:43:21;;;;;;;44.63;26.13;;;7.10;99.90;;;;;;4946688;28;20035;-75
2023/04/07 03:45:46;;;;;;;61.70;28.05;;;7.10;99.90;;;;;;4944654;28;20047;-75
2023/04/07 03:48:12;;;;;;;48.17;26.15;;;7.10;99.90;;;;;;4947968;28;20068;-75
2023/04/07 03:50:39;;;;;;;37.17;24.90;;;7.10;99.90;;;;;;4950036;28;20050;-76
2023/04/07 03:53:05;;;;;;;46.85;27.55;;;7.10;99.90;;;;;;4945043;28;20050;-75
2023/04/07 03:55:32;;;;;;;47.38;27.80;;;7.10;99.90;;;;;;4950823;28;20055;-75
2023/04/07 03:57:58;;;;;;;54.10;28.48;;;7.10;99.90;;;;;;4949485;28;20080;-75
2023/04/07 04:00:23;;;;;;;45.58;28.38;;;7.10;99.90;;;;;;4949352;28;20063;-75
2023/04/07 04:02:49;;;;;;;37.88;27.35;;;7.10;99.90;;;;;;4934978;28;20075;-74
2023/04/07 04:05:15;;;;;;;41.15;28.67;;;7.10;99.90;;;;;;4944456;28;20043;-74
2023/04/07 04:07:40;;;;;;;42.22;29.50;;;7.10;99.90;;;;;;4945799;28;20094;-74
2023/04/07 04:10:07;;;;;;;53.58;30.00;;;7.00;99.90;;;;;;4947752;28;20051;-74
2023/04/07 04:12:32;;;;;;;38.15;27.88;;;7.10;99.90;;;;;;4949492;28;20047;-74
2023/04/07 04:14:58;;;;;;;60.35;30.67;;;7.10;99.90;;;;;;4954861;28;20095;-74
2023/04/07 04:17:25;;;;;;;36.65;27.20;;;7.00;99.90;;;;;;4947641;28;20046;-73
2023/04/07 04:19:51;;;;;;;41.22;28.00;;;7.10;99.90;;;;;;4947755;28;20086;-74
2023/04/07 04:22:17;;;;;;;43.55;27.38;;;7.10;99.90;;;;;;4940394;28;20479;-73
2023/04/07 04:24:43;;;;;;;40.83;25.83;;;7.10;99.90;;;;;;4949038;28;20070;-72
2023/04/07 04:27:09;;;;;;;38.47;26.52;;;7.00;99.90;;;;;;4948290;28;20043;-72
2023/04/07 04:29:34;;;;;;;35.40;25.05;;;7.00;99.90;;;;;;4949140;28;20514;-72
2023/04/07 04:32:00;;;;;;;38.78;27.02;;;7.00;99.90;;;;;;4942384;28;20038;-72
2023/04/07 04:34:26;;;;;;;39.03;27.00;;;7.10;99.90;;;;;;4949463;28;20043;-72
2023/04/07 04:36:52;;;;;;;61.65;29.58;;;7.00;99.90;;;;;;4946562;28;20463;-72
2023/04/07 04:39:17;;;;;;;37.22;27.30;;;7.00;99.90;;;;;;4947396;28;20042;-72
2023/04/07 04:41:44;;;;;;;43.22;26.63;;;7.00;99.90;;;;;;4958810;28;20050;-72
2023/04/07 04:44:10;;;;;;;34.38;24.52;;;7.00;99.90;;;;;;4945438;28;20101;-72
2023/04/07 04:46:35;;;;;;;37.08;24.75;;;7.00;99.90;;;;;;4949759;28;20082;-73
2023/04/07 04:49:01;;;;;;;31.65;24.25;;;7.00;99.90;;;;;;4952448;28;20039;-71
2023/04/07 04:51:27;;;;;;;43.85;25.77;;;7.00;99.90;;;;;;4935263;28;20514;-72
2023/04/07 04:53:53;;;;;;;34.05;25.13;;;7.00;99.90;;;;;;4949002;28;20047;-72
2023/04/07 04:56:18;;;;;;;44.15;26.45;;;7.00;99.90;;;;;;4951697;28;20105;-72
2023/04/07 04:58:47;;;;;;;36.50;24.42;;;7.00;99.90;;;;;;4948534;28;20400;-72
2023/04/07 05:01:13;;;;;;;53.15;26.95;;;7.00;99.90;;;;;;4950602;28;20063;-72
2023/04/07 05:03:38;;;;;;;31.65;23.27;;;7.00;99.90;;;;;;4945738;28;20084;-72
2023/04/07 05:06:05;;;;;;;34.70;23.13;;;7.00;99.90;;;;;;4950058;28;20087;-71
2023/04/07 05:08:31;;;;;;;32.30;22.85;;;7.00;99.90;;;;;;4945359;28;20054;-71
2023/04/07 05:10:56;;;;;;;32.95;22.83;;;6.90;99.90;;;;;;4948566;28;20035;-71
2023/04/07 05:13:23;;;;;;;29.70;22.33;;;7.00;99.90;;;;;;4951497;28;20486;-71
2023/04/07 05:15:48;;;;;;;35.28;23.13;;;7.00;99.90;;;;;;4937169;28;20566;-71
2023/04/07 05:18:14;;;;;;;35.65;23.25;;;7.00;99.90;;;;;;4953762;28;20119;-72
2023/04/07 05:20:40;;;;;;;33.60;23.52;;;7.00;99.90;;;;;;4946495;28;20039;-71
2023/04/07 05:23:06;;;;;;;29.67;22.85;;;6.90;99.90;;;;;;4950853;28;20112;-71
2023/04/07 05:25:32;;;;;;;45.80;24.80;;;6.90;99.90;;;;;;4952768;28;20402;-71
2023/04/07 05:27:58;;;;;;;28.50;22.38;;;7.00;99.90;;;;;;4951877;28;20031;-71
2023/04/07 05:30:24;;;;;;;31.38;23.20;;;6.90;99.90;;;;;;4955870;28;20053;-71
2023/04/07 05:32:52;;;;;;;30.65;23.52;;;6.90;99.90;;;;;;4956552;28;20035;-71
2023/04/07 05:35:18;;;;;;;42.88;27.05;;;7.00;99.90;;;;;;4955805;28;20050;-70
2023/04/07 05:37:43;;;;;;;42.47;25.52;;;6.90;99.90;;;;;;4952848;28;20054;-70
2023/04/07 05:40:10;;;;;;;35.30;25.67;;;7.00;99.90;;;;;;4961535;28;20475;-70
2023/04/07 05:42:35;;;;;;;38.58;25.00;;;6.90;99.90;;;;;;4953207;28;20043;-71
2023/04/07 05:45:01;;;;;;;39.08;25.40;;;6.90;99.90;;;;;;4949159;28;20049;-71
2023/04/07 05:47:27;;;;;;;41.45;26.35;;;6.90;99.90;;;;;;4956757;28;20050;-70
2023/04/07 05:49:53;;;;;;;36.90;25.85;;;6.90;99.90;;;;;;4946052;28;20054;-71
2023/04/07 05:52:18;;;;;;;45.65;26.52;;;6.90;99.90;;;;;;4953996;28;20051;-70
2023/04/07 05:54:44;;;;;;;36.25;24.58;;;6.90;99.90;;;;;;4945511;28;20460;-71
2023/04/07 05:57:10;;;;;;;35.22;25.15;;;7.00;99.90;;;;;;4944187;28;20119;-70
2023/04/07 05:59:36;;;;;;;34.80;24.10;;;6.90;99.90;;;;;;4950998;28;20039;-69
2023/04/07 06:02:02;;;;;;;44.25;26.80;;;6.90;99.90;;;;;;4953660;28;20483;-70
2023/04/07 06:04:28;;;;;;;44.22;25.77;;;6.90;99.90;;;;;;4947330;28;20043;-71
2023/04/07 06:06:54;;;;;;;35.35;24.08;;;6.90;99.90;;;;;;4979551;28;20055;-71
2023/04/07 06:09:23;;;;;;;40.90;25.65;;;6.90;99.90;;;;;;4948566;28;20035;-72
2023/04/07 06:11:49;;;;;;;46.15;26.65;;;6.90;99.90;;;;;;4938526;28;20075;-71
2023/04/07 06:14:16;;;;;;;44.83;27.13;;;7.00;99.90;;;;;;4949092;28;20077;-71
2023/04/07 06:16:42;;;;;;;45.30;27.15;;;6.90;99.90;;;;;;4953093;28;20432;-70
2023/04/07 06:19:08;;;;;;;43.03;26.60;;;7.00;99.90;;;;;;4947903;28;20035;-72
2023/04/07 06:21:34;;;;;;;41.15;27.23;;;7.00;99.90;;;;;;4938025;29;20050;-71
2023/04/07 06:24:00;;;;;;;37.95;27.30;;;7.00;99.90;;;;;;4950515;28;20470;-71
2023/04/07 06:26:26;;;;;;;39.97;28.20;;;7.00;99.90;;;;;;4943460;28;20102;-71
2023/04/07 06:28:52;;;;;;;48.58;29.20;;;7.00;99.90;;;;;;4947163;28;20452;-71
2023/04/07 06:31:18;;;;;;;53.35;29.50;;;7.00;99.90;;;;;;4948162;28;20040;-72
2023/04/07 06:33:44;;;;;;;47.38;28.45;;;6.90;99.90;;;;;;4940005;28;20055;-71
2023/04/07 06:36:10;;;;;;;62.05;29.17;;;7.00;99.90;;;;;;4948051;28;20055;-70
2023/04/07 06:38:37;;;;;;;49.88;29.30;;;7.00;99.90;;;;;;4947643;28;20044;-71
2023/04/07 06:41:03;;;;;;;56.40;30.73;;;7.00;99.90;;;;;;4948828;28;20102;-71
2023/04/07 06:43:29;;;;;;;45.03;28.95;;;7.10;99.90;;;;;;4948578;28;20035;-71
2023/04/07 06:45:55;;;;;;;48.90;29.45;;;7.10;99.90;;;;;;4947218;28;20040;-70
2023/04/07 06:48:21;;;;;;;40.63;27.65;;;7.10;99.90;;;;;;4949955;28;20356;-71
2023/04/07 06:50:48;;;;;;;42.78;28.67;;;7.10;99.90;;;;;;4945468;28;20112;-70
2023/04/07 06:53:14;;;;;;;43.72;29.13;;;7.10;99.90;;;;;;4950068;28;20058;-70
2023/04/07 06:55:40;;;;;;;46.92;30.15;;;7.20;99.90;;;;;;4945942;28;20051;-70
2023/04/07 06:58:06;;;;;;;44.15;28.63;;;7.20;99.90;;;;;;4955380;28;20035;-71
2023/04/07 07:00:32;;;;;;;48.67;30.13;;;7.20;99.90;;;;;;4950498;28;20395;-71
2023/04/07 07:02:58;;;;;;;45.47;30.52;;;7.30;99.90;;;;;;4951552;28;20046;-71
2023/04/07 07:05:23;;;;;;;47.33;30.15;;;7.30;99.90;;;;;;4954587;28;20043;-71
2023/04/07 07:07:50;;;;;;;45.25;29.85;;;7.40;99.90;;;;;;4931653;28;20078;-71
2023/04/07 07:10:16;;;;;;;39.30;29.20;;;7.50;99.90;;;;;;4951276;28;20079;-72
2023/04/07 07:12:42;;;;;;;40.72;29.80;;;7.50;99.90;;;;;;4948299;28;20039;-71
2023/04/07 07:15:08;;;;;;;39.60;28.42;;;7.60;99.90;;;;;;4946193;28;20050;-71
2023/04/07 07:17:33;;;;;;;36.03;26.92;;;7.60;99.90;;;;;;4950777;28;20043;-70
2023/04/07 07:19:59;;;;;;;35.75;27.75;;;7.60;99.90;;;;;;4949267;28;20039;-70
2023/04/07 07:22:25;;;;;;;38.33;27.73;;;7.60;99.90;;;;;;4947317;28;20047;-70
2023/04/07 07:24:51;;;;;;;42.42;28.88;;;7.60;99.90;;;;;;4949428;28;20178;-71
2023/04/07 07:27:17;;;;;;;34.97;26.95;;;7.60;99.90;;;;;;4950699;28;20085;-70
2023/04/07 07:29:42;;;;;;;37.70;28.00;;;7.70;99.90;;;;;;4950627;28;20490;-70
2023/04/07 07:32:08;;;;;;;32.45;25.95;;;7.70;99.90;;;;;;4950782;28;20050;-70
2023/04/07 07:34:34;;;;;;;34.28;26.10;;;7.70;99.90;;;;;;4953527;28;20035;-70
2023/04/07 07:37:00;;;;;;;32.95;26.27;;;7.80;99.90;;;;;;4954256;28;20084;-71
2023/04/07 07:39:26;;;;;;;30.90;25.02;;;7.80;99.90;;;;;;4951072;28;20038;-70
2023/04/07 07:41:51;;;;;;;29.70;24.73;;;7.80;99.90;;;;;;4945807;28;20074;-70
2023/04/07 07:44:21;;;;;;;26.35;22.63;;;7.80;99.90;;;;;;4975723;28;20070;-70
2023/04/07 07:46:50;;;;;;;28.95;24.38;;;7.90;99.90;;;;;;4954449;28;20458;-71
2023/04/07 07:49:16;;;;;;;28.73;24.20;;;7.90;99.90;;;;;;4947276;28;20070;-69
2023/04/07 07:51:41;;;;;;;26.77;22.80;;;7.90;99.90;;;;;;4951281;28;20622;-71
2023/04/07 07:54:08;;;;;;;27.88;23.85;;;7.90;99.90;;;;;;4956064;28;20055;-70
2023/04/07 07:56:34;;;;;;;28.38;24.25;;;7.90;99.90;;;;;;4949373;28;20046;-70
2023/04/07 07:59:00;;;;;;;25.75;22.42;;;8.00;99.90;;;;;;4975341;28;20082;-70
2023/04/07 08:01:26;;;;;;;25.70;21.35;;;8.00;99.90;;;;;;4949633;28;20071;-70
2023/04/07 08:03:52;;;;;;;24.90;22.08;;;8.10;99.90;;;;;;4941375;28;20085;-70
2023/04/07 08:06:18;;;;;;;24.00;21.38;;;8.10;99.90;;;;;;4946542;28;20032;-70
2023/04/07 08:08:44;;;;;;;24.38;20.48;;;8.10;99.90;;;;;;4944215;28;20102;-70
2023/04/07 08:11:10;;;;;;;24.13;21.10;;;8.10;99.90;;;;;;4942095;28;20118;-70
2023/04/07 08:13:35;;;;;;;24.25;20.70;;;8.20;99.90;;;;;;4972852;28;20142;-70
2023/04/07 08:16:01;;;;;;;28.70;22.75;;;8.20;99.90;;;;;;4946969;28;20050;-71
2023/04/07 08:18:27;;;;;;;24.75;21.75;;;8.40;99.90;;;;;;4953764;28;20403;-70
2023/04/07 08:20:53;;;;;;;23.42;20.85;;;8.40;99.90;;;;;;4953459;28;20047;-71
2023/04/07 08:23:18;;;;;;;21.83;19.52;;;8.40;99.90;;;;;;4942407;28;20087;-71
2023/04/07 08:25:44;;;;;;;22.02;19.67;;;8.50;99.90;;;;;;4945885;28;20031;-70
2023/04/07 08:28:10;;;;;;;20.23;18.15;;;8.50;99.90;;;;;;4943235;28;20202;-71
2023/04/07 08:30:36;;;;;;;20.95;18.77;;;8.60;99.90;;;;;;4943989;28;20303;-67
2023/04/07 08:33:04;;;;;;;19.13;17.08;;;8.50;99.90;;;;;;4945692;28;20495;-71
2023/04/07 08:35:30;;;;;;;19.13;17.15;;;8.50;99.90;;;;;;4946546;28;20051;-71
2023/04/07 08:37:55;;;;;;;18.52;16.63;;;8.50;99.90;;;;;;4941567;28;20201;-71
2023/04/07 08:40:24;;;;;;;19.98;17.90;;;8.50;99.90;;;;;;4932452;29;20103;-71
2023/04/07 08:42:51;;;;;;;18.38;16.55;;;8.50;99.90;;;;;;4963439;28;20484;-72
2023/04/07 08:45:18;;;;;;;17.70;15.82;;;8.50;99.90;;;;;;4944303;28;20102;-73
2023/04/07 08:47:46;;;;;;;17.58;15.80;;;8.60;99.90;;;;;;4946083;28;20053;-72
2023/04/07 08:50:16;;;;;;;15.20;13.73;;;8.70;99.90;;;;;;4946260;28;20123;-71
2023/04/07 08:52:52;;;;;;;15.40;13.77;;;8.80;99.90;;;;;;4947815;28;20046;-71
2023/04/07 08:55:18;;;;;;;14.75;13.38;;;8.90;99.90;;;;;;4941521;28;20070;-72
2023/04/07 08:57:45;;;;;;;15.75;14.10;;;9.00;99.90;;;;;;4945135;28;20043;-71
2023/04/07 09:00:12;;;;;;;16.05;14.35;;;9.00;99.90;;;;;;4949346;28;20074;-72
2023/04/07 09:02:44;;;;;;;17.98;16.15;;;9.00;99.90;;;;;;4947893;28;20122;-71
2023/04/07 09:05:11;;;;;;;17.65;15.77;;;9.00;99.90;;;;;;4941784;28;20102;-71
2023/04/07 09:07:44;;;;;;;18.25;16.55;;;9.00;99.90;;;;;;4947487;28;20126;-70
2023/04/07 09:10:10;;;;;;;19.23;17.42;;;9.00;99.90;;;;;;4947573;28;20440;-71
2023/04/07 09:12:36;;;;;;;18.92;17.13;;;9.00;99.90;;;;;;4949506;28;20043;-72
2023/04/07 09:15:03;;;;;;;18.90;17.02;;;9.00;99.90;;;;;;4950078;28;20034;-71
2023/04/07 09:17:29;;;;;;;19.92;18.02;;;9.10;99.90;;;;;;4949924;28;20050;-71
2023/04/07 09:19:56;;;;;;;19.38;17.58;;;9.10;99.90;;;;;;4956297;28;20034;-71
2023/04/07 09:22:44;;;;;;;19.48;17.60;;;9.20;99.90;;;;;;4952526;28;20077;-71
2023/04/07 09:25:19;;;;;;;19.83;17.92;;;9.30;99.90;;;;;;4946434;28;20039;-70
2023/04/07 09:28:02;;;;;;;19.70;17.80;;;9.30;99.90;;;;;;4943791;28;20183;-71
2023/04/07 09:30:32;;;;;;;22.50;20.35;;;9.40;99.90;;;;;;4950679;28;20067;-71
2023/04/07 09:32:59;;;;;;;19.23;17.42;;;9.50;99.90;;;;;;4937010;29;20123;-71
2023/04/07 09:35:27;;;;;;;17.90;16.20;;;9.50;99.90;;;;;;4954820;28;20066;-71
2023/04/07 09:38:09;;;;;;;18.35;16.55;;;9.40;99.90;;;;;;4951637;28;20105;-71
2023/04/07 09:40:36;;;;;;;18.70;16.77;;;9.30;99.90;;;;;;4946476;28;20530;-71
2023/04/07 09:43:03;;;;;;;21.42;19.40;;;9.20;99.90;;;;;;4946952;28;20039;-71
2023/04/07 09:45:34;;;;;;;20.70;18.80;;;9.20;99.90;;;;;;4949328;28;20050;-71
2023/04/07 09:48:05;;;;;;;23.02;20.77;;;9.10;99.90;;;;;;4942721;28;20054;-66
2023/04/07 09:50:35;;;;;;;22.45;20.25;;;9.00;99.90;;;;;;4951088;28;20075;-66
2023/04/07 09:53:03;;;;;;;25.38;22.88;;;9.00;99.90;;;;;;4942799;28;20151;-67
2023/04/07 09:55:30;;;;;;;22.80;20.60;;;9.00;99.90;;;;;;4967214;28;20055;-67
2023/04/07 09:57:56;;;;;;;23.65;21.42;;;9.00;99.90;;;;;;4961751;28;20062;-66
2023/04/07 10:00:23;;;;;;;24.23;21.95;;;9.00;99.90;;;;;;4965644;28;20034;-70
2023/04/07 10:02:50;;;;;;;23.52;21.30;;;9.00;99.90;;;;;;4950130;28;20035;-70
2023/04/07 10:05:16;;;;;;;25.60;23.20;;;9.00;99.90;;;;;;4949496;28;20046;-71
2023/04/07 10:07:42;;;;;;;24.83;22.52;;;9.10;99.90;;;;;;4930834;28;20116;-70
2023/04/07 10:10:08;;;;;;;23.92;21.67;;;9.10;99.90;;;;;;4952510;28;20061;-70
2023/04/07 10:12:36;;;;;;;24.42;21.98;;;9.20;99.90;;;;;;4949830;28;20379;-70
2023/04/07 10:15:03;;;;;;;22.25;20.05;;;9.30;99.90;;;;;;4944179;28;20070;-70
2023/04/07 10:17:31;;;;;;;22.08;20.02;;;9.30;99.90;;;;;;4947982;28;20035;-70
2023/04/07 10:20:01;;;;;;;19.48;17.67;;;9.30;99.90;;;;;;4951706;28;20049;-71
2023/04/07 10:22:27;;;;;;;19.42;17.55;;;9.30;99.90;;;;;;4952487;28;20434;-71
2023/04/07 10:25:01;;;;;;;18.77;16.95;;;9.30;99.90;;;;;;4974446;28;20059;-70
2023/04/07 10:27:34;;;;;;;18.15;16.45;;;9.30;99.90;;;;;;4951305;28;20507;-70
2023/04/07 10:30:03;;;;;;;14.88;13.48;;;9.30;99.90;;;;;;4951414;28;20434;-70
2023/04/07 10:32:29;;;;;;;14.15;12.85;;;9.40;99.90;;;;;;4952327;28;20078;-71
2023/04/07 10:34:56;;;;;;;11.48;10.38;;;9.40;99.90;;;;;;4957794;28;20034;-70
2023/04/07 10:37:23;;;;;;;12.35;11.15;;;9.40;99.90;;;;;;4954451;28;20047;-70
2023/04/07 10:39:51;;;;;;;12.55;11.35;;;9.40;99.90;;;;;;4949154;28;20403;-70
2023/04/07 10:42:38;;;;;;;11.13;10.13;;;9.40;99.90;;;;;;4944824;28;20086;-72
2023/04/07 10:45:08;;;;;;;8.88;7.97;;;9.40;99.90;;;;;;4946546;28;20397;-69
2023/04/07 10:47:35;;;;;;;8.20;7.40;;;9.50;99.90;;;;;;4951100;28;20046;-70
2023/04/07 10:50:19;;;;;;;6.72;6.13;;;9.50;99.90;;;;;;4947709;28;20051;-69
2023/04/07 10:53:08;;;;;;;7.55;6.85;;;9.40;99.90;;;;;;4978439;28;20046;-70
2023/04/07 10:55:36;;;;;;;6.28;5.43;;;9.40;99.90;;;;;;4963070;28;20051;-70
2023/04/07 10:58:22;;;;;;;6.95;6.25;;;9.40;99.90;;;;;;4978969;28;20039;-71
2023/04/07 11:01:03;;;;;;;6.82;6.20;;;9.40;99.90;;;;;;4972567;28;20040;-70
2023/04/07 11:03:32;;;;;;;7.55;6.75;;;9.40;99.90;;;;;;4937490;28;20048;-70
2023/04/07 11:06:09;;;;;;;6.38;5.78;;;9.50;99.90;;;;;;4948114;28;20127;-69
2023/04/07 11:08:37;;;;;;;7.97;6.13;;;9.50;99.90;;;;;;4949342;28;20039;-69
2023/04/07 11:11:07;;;;;;;5.75;5.18;;;9.60;99.90;;;;;;4941731;28;20062;-71
2023/04/07 11:13:41;;;;;;;5.43;4.70;;;9.70;99.90;;;;;;4941626;28;20505;-69
2023/04/07 11:16:07;;;;;;;5.60;5.10;;;9.80;99.90;;;;;;4961363;28;20400;-69
2023/04/07 11:18:33;;;;;;;6.28;5.68;;;9.90;99.90;;;;;;4980573;28;20039;-70
2023/04/07 11:20:59;;;;;;;6.00;5.40;;;9.90;99.90;;;;;;4953091;28;20043;-71
2023/04/07 11:23:26;;;;;;;6.70;6.10;;;9.90;99.90;;;;;;4938082;28;20055;-71
2023/04/07 11:26:01;;;;;;;6.18;5.57;;;10.00;99.90;;;;;;4949080;28;20050;-69
2023/04/07 11:28:28;;;;;;;6.45;5.85;;;9.90;99.90;;;;;;4942792;28;20043;-69
2023/04/07 11:30:55;;;;;;;5.70;5.10;;;9.90;99.90;;;;;;4938147;28;20508;-70
2023/04/07 11:33:23;;;;;;;5.55;4.90;;;9.80;99.90;;;;;;4944168;28;20411;-70
2023/04/07 11:35:54;;;;;;;6.45;5.85;;;9.80;99.90;;;;;;4946666;28;20036;-70
2023/04/07 11:38:21;;;;;;;6.70;5.75;;;9.70;99.90;;;;;;4979734;28;20043;-70
2023/04/07 11:40:47;;;;;;;7.15;6.43;;;9.60;99.90;;;;;;4941274;28;20039;-70
2023/04/07 11:43:31;;;;;;;7.07;6.38;;;9.50;99.90;;;;;;4941953;28;20546;-69
2023/04/07 11:46:13;;;;;;;7.00;6.30;;;9.40;99.90;;;;;;4934625;29;20027;-69
2023/04/07 11:48:41;;;;;;;6.88;6.22;;;9.40;99.90;;;;;;4950062;28;20195;-70
2023/04/07 11:51:22;;;;;;;6.75;6.00;;;9.30;99.90;;;;;;4945884;28;20072;-72
2023/04/07 11:53:55;;;;;;;6.55;5.63;;;9.30;99.90;;;;;;4945533;28;20051;-69
2023/04/07 11:56:21;;;;;;;6.55;5.93;;;9.30;99.90;;;;;;4948789;28;20061;-72
2023/04/07 11:58:48;;;;;;;6.88;6.18;;;9.30;99.90;;;;;;4943625;28;20039;-69
2023/04/07 12:01:14;;;;;;;7.50;6.78;;;9.20;99.90;;;;;;4964626;28;20550;-75
2023/04/07 12:04:00;;;;;;;7.40;6.68;;;9.20;99.90;;;;;;4950791;28;20050;-75
2023/04/07 12:06:37;;;;;;;7.18;6.47;;;9.20;99.90;;;;;;4955661;28;20085;-75
2023/04/07 12:09:04;;;;;;;7.53;6.80;;;9.20;99.90;;;;;;4950908;28;20054;-76
2023/04/07 12:11:31;;;;;;;7.05;6.30;;;9.20;99.90;;;;;;4947737;28;20152;-76
2023/04/07 12:13:57;;;;;;;7.30;6.57;;;9.30;99.90;;;;;;4948748;28;20463;-76
2023/04/07 12:16:23;;;;;;;7.15;6.45;;;9.30;99.90;;;;;;4965549;28;20130;-76
2023/04/07 12:18:53;;;;;;;8.05;7.25;;;9.40;99.90;;;;;;4961350;28;20555;-74
2023/04/07 12:21:19;;;;;;;7.32;6.43;;;9.50;99.90;;;;;;4948460;28;20039;-76
2023/04/07 12:23:46;;;;;;;7.60;6.85;;;9.50;99.90;;;;;;4965067;28;20057;-75
2023/04/07 12:26:12;;;;;;;8.02;7.22;;;9.50;99.90;;;;;;4945866;28;20035;-75
2023/04/07 12:28:38;;;;;;;7.38;6.68;;;9.60;99.90;;;;;;4968467;28;20066;-75
2023/04/07 12:31:04;;;;;;;8.15;7.35;;;9.70;99.90;;;;;;4946470;28;20126;-75
2023/04/07 12:33:30;;;;;;;8.30;7.50;;;9.70;99.90;;;;;;4948970;28;20080;-75
2023/04/07 12:35:57;;;;;;;8.35;7.55;;;9.70;99.90;;;;;;4954262;28;20383;-74
2023/04/07 12:38:23;;;;;;;8.43;7.63;;;9.70;99.90;;;;;;4947418;28;20058;-75
2023/04/07 12:40:49;;;;;;;9.05;8.15;;;9.70;99.90;;;;;;4947416;28;20034;-74
2023/04/07 12:43:15;;;;;;;8.55;7.68;;;9.70;99.90;;;;;;4951950;28;20097;-74